No.3toumei Maru — JD2403 — position and weather

sailwx.info

Track history (hours):
 
Tides and Currents Weather Stations Pressure Air Temp Water Temp Dewpoint Dewpoint Depression Visibility Wind Speed Wind Dir Waves Ship Positions

No.3toumei Maru

Last reported at 2017-Oct-18 23:13 UTC. Time now 2017-Oct-19 01:37 UTC.
Position N 35°31' E 139°46'.

Length 60 m.

Type: Tanker. MMSI: 431000178.

Date/timePositionNaut miles runAvg speedWind from/ knotsBaromVisibWave heightAir tempDewpointWater temp
2017-Oct-18 23:13N 35°31' E 139°46'6 0.2
2017-Oct-17 18:52N 35°25' E 139°47'511.1
2017-Oct-17 18:25N 35°21' E 139°45'710.6
2017-Oct-17 17:47N 35°14' E 139°47'311.0
2017-Oct-17 17:30N 35°11' E 139°46'611.4
2017-Oct-17 17:00N 35°05' E 139°44'611.5
2017-Oct-17 16:28N 35°02' E 139°38'  
2017-Oct-14 05:37N 35°04' E 139°35'111.5
2017-Oct-14 05:30N 35°05' E 139°36'611.4
2017-Oct-14 04:59N 35°07' E 139°43'612.2
2017-Oct-14 04:30N 35°12' E 139°46'611.6
2017-Oct-14 03:59N 35°18' E 139°44'611.8
2017-Oct-14 03:28N 35°24' E 139°43'7 0.4
2017-Oct-13 10:10N 35°27' E 139°50'511.1
2017-Oct-13 09:41N 35°23' E 139°46'211.1
2017-Oct-13 09:30N 35°21' E 139°45'610.1
2017-Oct-13 08:53N 35°15' E 139°47'410.7
2017-Oct-13 08:29N 35°11' E 139°47'510.8
2017-Oct-13 08:00N 35°06' E 139°44'510.6
2017-Oct-13 07:30N 35°03' E 139°39'234 9.2
2017-Oct-12 06:04N 34°09' E 135°02'111.4
2017-Oct-12 06:00N 34°10' E 135°02'29 3.4
2017-Oct-11 21:14N 34°33' E 135°24'412.0
2017-Oct-11 20:54N 34°33' E 135°19'512.1
2017-Oct-11 20:29N 34°34' E 135°13'712.8
2017-Oct-11 19:58N 34°35' E 135°05'  
2017-Oct-09 01:09N 34°36' E 135°08'211.8
2017-Oct-09 00:59N 34°36' E 135°10'611.8
2017-Oct-09 00:29N 34°38' E 135°17'2 3.2
2017-Oct-08 23:57N 34°40' E 135°18'0 0.0
2017-Oct-08 23:27N 34°40' E 135°18'  
Track history (hours):
 
Tides and Currents Weather Stations Pressure Air Temp Water Temp Dewpoint Dewpoint Depression Visibility Wind Speed Wind Dir Waves Ship Positions

No.3toumei Maru

Last reported at 2017-Oct-18 23:13 UTC. Time now 2017-Oct-19 01:37 UTC.
Position N 35°31' E 139°46'.

Length 60 m.

Type: Tanker. MMSI: 431000178.

Date/timePositionNaut miles runAvg speedWind from/ knotsBaromVisibWave heightAir tempDewpointWater temp
2017-Oct-18 23:13N 35°31' E 139°46'6 0.2
2017-Oct-17 18:52N 35°25' E 139°47'511.1
2017-Oct-17 18:25N 35°21' E 139°45'710.6
2017-Oct-17 17:47N 35°14' E 139°47'311.0
2017-Oct-17 17:30N 35°11' E 139°46'611.4
2017-Oct-17 17:00N 35°05' E 139°44'611.5
2017-Oct-17 16:28N 35°02' E 139°38'  
2017-Oct-14 05:37N 35°04' E 139°35'111.5
2017-Oct-14 05:30N 35°05' E 139°36'611.4
2017-Oct-14 04:59N 35°07' E 139°43'612.2
2017-Oct-14 04:30N 35°12' E 139°46'611.6
2017-Oct-14 03:59N 35°18' E 139°44'611.8
2017-Oct-14 03:28N 35°24' E 139°43'7 0.4
2017-Oct-13 10:10N 35°27' E 139°50'511.1
2017-Oct-13 09:41N 35°23' E 139°46'211.1
2017-Oct-13 09:30N 35°21' E 139°45'610.1
2017-Oct-13 08:53N 35°15' E 139°47'410.7
2017-Oct-13 08:29N 35°11' E 139°47'510.8
2017-Oct-13 08:00N 35°06' E 139°44'510.6
2017-Oct-13 07:30N 35°03' E 139°39'234 9.2
2017-Oct-12 06:04N 34°09' E 135°02'111.4
2017-Oct-12 06:00N 34°10' E 135°02'29 3.4
2017-Oct-11 21:14N 34°33' E 135°24'412.0
2017-Oct-11 20:54N 34°33' E 135°19'512.1
2017-Oct-11 20:29N 34°34' E 135°13'712.8
2017-Oct-11 19:58N 34°35' E 135°05'  
2017-Oct-09 01:09N 34°36' E 135°08'211.8
2017-Oct-09 00:59N 34°36' E 135°10'611.8
2017-Oct-09 00:29N 34°38' E 135°17'2 3.2
2017-Oct-08 23:57N 34°40' E 135°18'0 0.0
2017-Oct-08 23:27N 34°40' E 135°18'  

Dump ship's entire track history